AAL1126 SKBO-KMIA
Flight info
| Callsign | AAL1126 |
|---|---|
| Flight time | N/A |
| Altitude | 36000 |
| Route | OSUSU4R GIKPU UQ120 DIBAM DCT KAGEM UL417 EVPIP/N0460F380 UL417 LENAX UL795 ALTIB DCT ZEUSS VIICE2 |
| Aircraft | B38M/M-SDE1FGHILORVWXY/HB1 |
Departure
| Time | 2026-05-06 16:42 |
|---|---|
| Airport | El Dorado International Airport (SKBO) |
Arrival
| Time | N/A |
|---|---|
| Airport | Miami International Airport (KMIA) |
| Time | Latitude | Longitude | Altitude | Speed | Heading |
|---|---|---|---|---|---|
| 2026-05-06 16:25 | 4.69993 | -74.14124 | 8373 ft | 0 kts | 217° |
| 2026-05-06 16:33 | 4.70005 | -74.14114 | 8372 ft | 4 kts | 225° |
| 2026-05-06 16:33 | 4.70023 | -74.14099 | 8373 ft | 4 kts | 225° |
| 2026-05-06 16:34 | 4.70033 | -74.14052 | 8372 ft | 4 kts | 291° |
| 2026-05-06 16:34 | 4.70021 | -74.14028 | 8373 ft | 4 kts | 305° |
| 2026-05-06 16:34 | 4.70004 | -74.14007 | 8373 ft | 4 kts | 309° |
| 2026-05-06 16:34 | 4.69996 | -74.13996 | 8372 ft | 1 kts | 307° |
| 2026-05-06 16:37 | 4.69997 | -74.13998 | 8372 ft | 0 kts | 307° |
| 2026-05-06 16:37 | 4.70004 | -74.14007 | 8373 ft | 5 kts | 307° |
| 2026-05-06 16:37 | 4.70051 | -74.14036 | 8372 ft | 10 kts | 12° |
| 2026-05-06 16:37 | 4.70134 | -74.13983 | 8372 ft | 18 kts | 25° |
| 2026-05-06 16:38 | 4.70176 | -74.14000 | 8372 ft | 7 kts | 308° |
| 2026-05-06 16:38 | 4.70219 | -74.14055 | 8372 ft | 14 kts | 308° |
| 2026-05-06 16:38 | 4.70295 | -74.14157 | 8372 ft | 23 kts | 307° |
| 2026-05-06 16:38 | 4.70405 | -74.14303 | 8372 ft | 28 kts | 307° |
| 2026-05-06 16:39 | 4.70524 | -74.14460 | 8373 ft | 28 kts | 307° |
| 2026-05-06 16:39 | 4.70602 | -74.14562 | 8373 ft | 28 kts | 307° |
| 2026-05-06 16:39 | 4.70717 | -74.14714 | 8373 ft | 27 kts | 307° |
| 2026-05-06 16:39 | 4.70828 | -74.14863 | 8373 ft | 27 kts | 307° |
| 2026-05-06 16:40 | 4.70975 | -74.15055 | 8372 ft | 26 kts | 306° |
| 2026-05-06 16:40 | 4.71082 | -74.15196 | 8373 ft | 25 kts | 315° |
| 2026-05-06 16:40 | 4.71241 | -74.15235 | 8373 ft | 24 kts | 352° |
| 2026-05-06 16:40 | 4.71306 | -74.15157 | 8372 ft | 17 kts | 133° |
| 2026-05-06 16:41 | 4.71252 | -74.15093 | 8372 ft | 25 kts | 129° |
| 2026-05-06 16:41 | 4.71039 | -74.14811 | 8370 ft | 75 kts | 127° |
| 2026-05-06 16:41 | 4.70638 | -74.14282 | 8373 ft | 115 kts | 127° |
| 2026-05-06 16:41 | 4.70082 | -74.13547 | 8371 ft | 149 kts | 127° |
| 2026-05-06 16:42 | 4.69170 | -74.12334 | 8488 ft | 172 kts | 126° |
| 2026-05-06 16:42 | 4.68486 | -74.11367 | 8959 ft | 171 kts | 117° |
| 2026-05-06 16:42 | 4.68295 | -74.10156 | 9058 ft | 192 kts | 75° |
| 2026-05-06 16:42 | 4.68775 | -74.09393 | 9194 ft | 202 kts | 40° |
| 2026-05-06 16:43 | 4.70075 | -74.08972 | 9759 ft | 198 kts | 8° |
| 2026-05-06 16:43 | 4.71453 | -74.08743 | 10133 ft | 207 kts | 17° |
| 2026-05-06 16:43 | 4.72900 | -74.08328 | 10372 ft | 225 kts | 19° |
| 2026-05-06 16:43 | 4.74469 | -74.07843 | 10463 ft | 249 kts | 19° |
| 2026-05-06 16:44 | 4.76623 | -74.07154 | 11425 ft | 241 kts | 23° |
| 2026-05-06 16:44 | 4.77710 | -74.06801 | 11832 ft | 247 kts | 23° |
| 2026-05-06 16:44 | 4.79392 | -74.06240 | 11972 ft | 265 kts | 22° |
| 2026-05-06 16:44 | 4.81193 | -74.05636 | 12395 ft | 280 kts | 22° |
| 2026-05-06 16:45 | 4.83746 | -74.04779 | 12853 ft | 306 kts | 22° |
| 2026-05-06 16:45 | 4.85109 | -74.04319 | 13059 ft | 319 kts | 22° |
| 2026-05-06 16:45 | 4.87278 | -74.03585 | 13351 ft | 339 kts | 22° |
| 2026-05-06 16:45 | 4.89559 | -74.02813 | 13728 ft | 354 kts | 22° |
| 2026-05-06 16:46 | 4.91912 | -74.02018 | 14336 ft | 358 kts | 22° |
| 2026-05-06 16:46 | 4.94277 | -74.01217 | 15061 ft | 359 kts | 22° |
| 2026-05-06 16:46 | 4.96654 | -74.00412 | 15712 ft | 362 kts | 22° |
| 2026-05-06 16:46 | 4.99052 | -73.99599 | 16350 ft | 365 kts | 22° |
| 2026-05-06 16:47 | 5.01447 | -73.98797 | 16601 ft | 368 kts | 19° |
| 2026-05-06 16:47 | 5.03936 | -73.98180 | 16686 ft | 369 kts | 17° |
| 2026-05-06 16:47 | 5.06429 | -73.97573 | 16723 ft | 368 kts | 17° |
| 2026-05-06 16:47 | 5.08913 | -73.96955 | 16711 ft | 368 kts | 17° |
| 2026-05-06 16:48 | 5.11396 | -73.96331 | 16717 ft | 368 kts | 18° |
| 2026-05-06 16:48 | 5.13881 | -73.95704 | 16667 ft | 368 kts | 18° |
| 2026-05-06 16:48 | 5.16363 | -73.95076 | 16705 ft | 368 kts | 17° |
| 2026-05-06 16:48 | 5.18846 | -73.94447 | 16727 ft | 370 kts | 18° |
| 2026-05-06 16:49 | 5.21340 | -73.93816 | 17366 ft | 370 kts | 18° |
| 2026-05-06 16:49 | 5.23847 | -73.93182 | 18034 ft | 373 kts | 18° |
| 2026-05-06 16:49 | 5.26328 | -73.92559 | 18617 ft | 374 kts | 18° |
| 2026-05-06 16:49 | 5.28866 | -73.91928 | 19077 ft | 377 kts | 18° |
| 2026-05-06 16:50 | 5.31421 | -73.91292 | 19604 ft | 380 kts | 18° |
| 2026-05-06 16:50 | 5.33999 | -73.90650 | 20056 ft | 383 kts | 17° |
| 2026-05-06 16:50 | 5.36591 | -73.90005 | 20575 ft | 385 kts | 18° |
| 2026-05-06 16:50 | 5.39205 | -73.89353 | 21014 ft | 389 kts | 18° |
| 2026-05-06 16:51 | 5.41842 | -73.88697 | 21450 ft | 390 kts | 17° |
| 2026-05-06 16:51 | 5.44488 | -73.88036 | 21886 ft | 394 kts | 15° |
| 2026-05-06 16:51 | 5.47189 | -73.87366 | 22012 ft | 407 kts | 17° |
| 2026-05-06 16:51 | 5.49945 | -73.86677 | 22020 ft | 421 kts | 16° |
| 2026-05-06 16:52 | 5.52830 | -73.85973 | 22002 ft | 433 kts | 14° |
| 2026-05-06 16:52 | 5.55800 | -73.85372 | 22340 ft | 435 kts | 13° |
| 2026-05-06 16:52 | 5.58770 | -73.84767 | 22620 ft | 438 kts | 14° |
| 2026-05-06 16:52 | 5.61760 | -73.84149 | 22965 ft | 439 kts | 14° |
| 2026-05-06 16:53 | 5.64766 | -73.83527 | 23281 ft | 442 kts | 14° |
| 2026-05-06 16:53 | 5.67780 | -73.82902 | 23642 ft | 443 kts | 13° |
| 2026-05-06 16:53 | 5.70814 | -73.82275 | 23851 ft | 446 kts | 13° |
| 2026-05-06 16:53 | 5.73850 | -73.81645 | 24157 ft | 447 kts | 12° |
| 2026-05-06 16:54 | 5.76867 | -73.81020 | 24354 ft | 450 kts | 14° |
| 2026-05-06 16:54 | 5.79936 | -73.80384 | 24641 ft | 451 kts | 14° |
| 2026-05-06 16:54 | 5.83019 | -73.79745 | 24849 ft | 454 kts | 14° |
| 2026-05-06 16:54 | 5.86116 | -73.79104 | 25138 ft | 455 kts | 13° |
| 2026-05-06 16:55 | 5.89221 | -73.78460 | 25325 ft | 458 kts | 13° |
| 2026-05-06 16:55 | 5.92349 | -73.77812 | 25607 ft | 459 kts | 13° |
| 2026-05-06 16:55 | 5.95484 | -73.77162 | 25841 ft | 461 kts | 13° |
| 2026-05-06 16:55 | 5.98631 | -73.76510 | 26101 ft | 463 kts | 13° |
| 2026-05-06 16:56 | 6.01792 | -73.75855 | 26311 ft | 465 kts | 13° |
| 2026-05-06 16:56 | 6.04964 | -73.75202 | 26562 ft | 466 kts | 13° |
| 2026-05-06 16:56 | 6.08106 | -73.74556 | 26760 ft | 468 kts | 13° |
| 2026-05-06 16:56 | 6.11302 | -73.73897 | 27007 ft | 470 kts | 13° |
| 2026-05-06 16:57 | 6.14398 | -73.73261 | 27229 ft | 471 kts | 13° |
| 2026-05-06 16:57 | 6.17565 | -73.72608 | 28017 ft | 448 kts | 13° |
| 2026-05-06 16:57 | 6.20425 | -73.71996 | 29997 ft | 392 kts | 15° |
| 2026-05-06 16:57 | 6.22954 | -73.71339 | 31185 ft | 365 kts | 18° |
| 2026-05-06 16:58 | 6.25380 | -73.70502 | 30806 ft | 379 kts | 23° |
| 2026-05-06 16:58 | 6.27905 | -73.69313 | 29088 ft | 424 kts | 30° |
| 2026-05-06 16:58 | 6.30454 | -73.67622 | 27590 ft | 460 kts | 39° |
| 2026-05-06 16:58 | 6.32726 | -73.65390 | 27806 ft | 445 kts | 51° |
| 2026-05-06 16:59 | 6.34302 | -73.62882 | 29164 ft | 405 kts | 66° |
| 2026-05-06 16:59 | 6.35117 | -73.60268 | 30053 ft | 386 kts | 80° |
| 2026-05-06 16:59 | 6.35227 | -73.57547 | 29523 ft | 401 kts | 95° |
| 2026-05-06 16:59 | 6.34538 | -73.54717 | 28124 ft | 436 kts | 112° |
| 2026-05-06 17:00 | 6.32909 | -73.52051 | 27182 ft | 457 kts | 130° |
| 2026-05-06 17:00 | 6.30463 | -73.50072 | 27449 ft | 446 kts | 150° |
| 2026-05-06 17:00 | 6.27592 | -73.49127 | 28225 ft | 428 kts | 172° |
| 2026-05-06 17:00 | 6.24683 | -73.49260 | 28480 ft | 427 kts | 191° |
| 2026-05-06 17:01 | 6.21919 | -73.50443 | 27887 ft | 443 kts | 213° |
| 2026-05-06 17:01 | 6.19672 | -73.52645 | 27035 ft | 464 kts | 234° |
| 2026-05-06 17:01 | 6.18385 | -73.55634 | 26641 ft | 470 kts | 258° |
| 2026-05-06 17:01 | 6.18389 | -73.58855 | 26822 ft | 457 kts | 283° |
| 2026-05-06 17:02 | 6.19662 | -73.61698 | 27116 ft | 444 kts | 308° |
| 2026-05-06 17:02 | 6.21957 | -73.63716 | 26987 ft | 440 kts | 333° |
| 2026-05-06 17:02 | 6.24895 | -73.64527 | 26388 ft | 445 kts | 1° |
| 2026-05-06 17:02 | 6.27859 | -73.63658 | 25128 ft | 460 kts | 36° |
| 2026-05-06 17:03 | 6.29754 | -73.61061 | 23859 ft | 476 kts | 74° |
| 2026-05-06 17:03 | 6.29537 | -73.57810 | 23545 ft | 469 kts | 113° |
| 2026-05-06 17:03 | 6.27459 | -73.55455 | 24110 ft | 446 kts | 148° |
| 2026-05-06 17:03 | 6.24575 | -73.54730 | 24511 ft | 437 kts | 181° |
| 2026-05-06 17:04 | 6.21697 | -73.55694 | 24181 ft | 450 kts | 213° |
| 2026-05-06 17:04 | 6.19673 | -73.58125 | 23452 ft | 467 kts | 246° |
| 2026-05-06 17:04 | 6.19233 | -73.61324 | 23091 ft | 466 kts | 279° |
| 2026-05-06 17:04 | 6.20528 | -73.64202 | 23317 ft | 447 kts | 312° |
| 2026-05-06 17:05 | 6.23046 | -73.65857 | 23358 ft | 433 kts | 346° |
| 2026-05-06 17:05 | 6.26012 | -73.65705 | 22486 ft | 438 kts | 24° |
| 2026-05-06 17:05 | 6.28246 | -73.63655 | 21269 ft | 451 kts | 64° |
| 2026-05-06 17:05 | 6.28525 | -73.60580 | 20843 ft | 449 kts | 106° |
| 2026-05-06 17:06 | 6.26641 | -73.58212 | 21122 ft | 440 kts | 148° |
| 2026-05-06 17:06 | 6.23665 | -73.57741 | 21064 ft | 447 kts | 189° |
| 2026-05-06 17:06 | 6.21023 | -73.59373 | 20458 ft | 463 kts | 231° |
| 2026-05-06 17:06 | 6.20032 | -73.62422 | 19865 ft | 471 kts | 273° |
| 2026-05-06 17:07 | 6.21278 | -73.65351 | 19629 ft | 458 kts | 316° |
| 2026-05-06 17:07 | 6.24014 | -73.66606 | 19545 ft | 437 kts | 0° |
| 2026-05-06 17:07 | 6.26772 | -73.65624 | 19120 ft | 427 kts | 44° |
| 2026-05-06 17:07 | 6.28004 | -73.63000 | 18713 ft | 423 kts | 87° |
| 2026-05-06 17:08 | 6.27086 | -73.60290 | 18946 ft | 414 kts | 129° |
| 2026-05-06 17:08 | 6.24608 | -73.58931 | 19094 ft | 418 kts | 169° |
| 2026-05-06 17:08 | 6.21755 | -73.59516 | 18838 ft | 435 kts | 209° |
| 2026-05-06 17:08 | 6.19847 | -73.61822 | 18604 ft | 445 kts | 249° |
| 2026-05-06 17:09 | 6.19767 | -73.64847 | 18667 ft | 437 kts | 289° |
| 2026-05-06 17:09 | 6.21545 | -73.67209 | 18600 ft | 426 kts | 330° |
| 2026-05-06 17:09 | 6.24342 | -73.67840 | 18252 ft | 417 kts | 12° |
| 2026-05-06 17:09 | 6.26734 | -73.66345 | 17545 ft | 416 kts | 57° |
| 2026-05-06 17:10 | 6.27264 | -73.63575 | 17117 ft | 417 kts | 103° |
| 2026-05-06 17:10 | 6.25538 | -73.61333 | 17103 ft | 420 kts | 149° |
| 2026-05-06 17:10 | 6.22672 | -73.61091 | 17064 ft | 431 kts | 196° |
| 2026-05-06 17:10 | 6.20426 | -73.63062 | 16518 ft | 450 kts | 244° |
| 2026-05-06 17:11 | 6.20364 | -73.66183 | 15601 ft | 466 kts | 295° |
| 2026-05-06 17:11 | 6.22663 | -73.68261 | 15351 ft | 446 kts | 347° |
| 2026-05-06 17:11 | 6.25506 | -73.67774 | 15473 ft | 414 kts | 39° |
| 2026-05-06 17:11 | 6.27364 | -73.65769 | 16884 ft | 371 kts | 47° |
| 2026-05-06 17:12 | 6.29344 | -73.64111 | 17793 ft | 377 kts | 34° |
| 2026-05-06 17:12 | 6.31783 | -73.63084 | 17880 ft | 397 kts | 15° |
| 2026-05-06 17:12 | 6.34590 | -73.62885 | 18084 ft | 414 kts | 357° |
| 2026-05-06 17:12 | 6.37410 | -73.63554 | 18566 ft | 418 kts | 345° |
| 2026-05-06 17:13 | 6.40191 | -73.64477 | 18912 ft | 423 kts | 344° |
| 2026-05-06 17:13 | 6.43036 | -73.65230 | 19280 ft | 422 kts | 351° |
| 2026-05-06 17:13 | 6.45867 | -73.66056 | 19687 ft | 427 kts | 342° |
| 2026-05-06 17:13 | 6.48730 | -73.66774 | 20061 ft | 424 kts | 358° |
| 2026-05-06 17:14 | 6.51653 | -73.66607 | 20460 ft | 421 kts | 14° |
| 2026-05-06 17:14 | 6.54418 | -73.65656 | 20823 ft | 422 kts | 22° |
| 2026-05-06 17:14 | 6.57238 | -73.64755 | 21138 ft | 426 kts | 18° |
| 2026-05-06 17:14 | 6.60118 | -73.63994 | 21541 ft | 428 kts | 15° |
| 2026-05-06 17:15 | 6.63032 | -73.63309 | 21864 ft | 432 kts | 14° |
| 2026-05-06 17:15 | 6.65971 | -73.62660 | 22215 ft | 434 kts | 13° |
| 2026-05-06 17:15 | 6.68937 | -73.62027 | 22583 ft | 437 kts | 13° |
| 2026-05-06 17:15 | 6.71887 | -73.61410 | 22910 ft | 439 kts | 13° |
| 2026-05-06 17:16 | 6.74893 | -73.60788 | 23249 ft | 442 kts | 13° |
| 2026-05-06 17:16 | 6.77919 | -73.60162 | 23545 ft | 444 kts | 13° |
| 2026-05-06 17:16 | 6.80962 | -73.59534 | 23820 ft | 446 kts | 13° |
| 2026-05-06 17:16 | 6.84013 | -73.58904 | 24091 ft | 448 kts | 13° |
| 2026-05-06 17:17 | 6.87074 | -73.58272 | 24356 ft | 450 kts | 12° |
| 2026-05-06 17:17 | 6.90148 | -73.57637 | 24620 ft | 452 kts | 12° |
| 2026-05-06 17:17 | 6.93236 | -73.57000 | 24890 ft | 454 kts | 12° |
| 2026-05-06 17:17 | 6.96334 | -73.56364 | 25138 ft | 455 kts | 11° |
| 2026-05-06 17:18 | 6.99505 | -73.56165 | 25393 ft | 459 kts | 358° |
| 2026-05-06 17:18 | 7.02703 | -73.56318 | 25645 ft | 461 kts | 359° |
| 2026-05-06 17:18 | 7.05910 | -73.56456 | 25905 ft | 463 kts | 358° |
| 2026-05-06 17:18 | 7.09093 | -73.56601 | 26145 ft | 464 kts | 359° |
| 2026-05-06 17:19 | 7.12329 | -73.56752 | 26412 ft | 466 kts | 358° |
| 2026-05-06 17:19 | 7.15570 | -73.56905 | 26638 ft | 468 kts | 359° |
| 2026-05-06 17:19 | 7.18829 | -73.57060 | 26907 ft | 469 kts | 359° |
| 2026-05-06 17:19 | 7.22095 | -73.57216 | 27120 ft | 472 kts | 359° |
| 2026-05-06 17:20 | 7.25380 | -73.57373 | 27370 ft | 473 kts | 358° |
| 2026-05-06 17:20 | 7.28674 | -73.57531 | 27589 ft | 475 kts | 358° |
| 2026-05-06 17:20 | 7.31983 | -73.57689 | 27832 ft | 476 kts | 358° |
| 2026-05-06 17:20 | 7.35298 | -73.57848 | 28079 ft | 477 kts | 358° |
| 2026-05-06 17:21 | 7.38631 | -73.58007 | 28295 ft | 479 kts | 358° |
| 2026-05-06 17:21 | 7.41969 | -73.58167 | 28533 ft | 481 kts | 358° |
| 2026-05-06 17:21 | 7.45316 | -73.58327 | 28734 ft | 482 kts | 358° |
| 2026-05-06 17:21 | 7.48672 | -73.58488 | 28967 ft | 484 kts | 358° |
| 2026-05-06 17:22 | 7.52046 | -73.58649 | 29159 ft | 485 kts | 358° |
| 2026-05-06 17:22 | 7.55417 | -73.58810 | 29371 ft | 486 kts | 358° |
| 2026-05-06 17:22 | 7.58812 | -73.58973 | 29522 ft | 488 kts | 357° |
| 2026-05-06 17:22 | 7.62209 | -73.59136 | 29717 ft | 488 kts | 358° |
| 2026-05-06 17:23 | 7.65559 | -73.59296 | 29927 ft | 488 kts | 357° |
| 2026-05-06 17:23 | 7.68952 | -73.59459 | 30127 ft | 488 kts | 357° |
| 2026-05-06 17:23 | 7.72352 | -73.59622 | 30325 ft | 488 kts | 357° |
| 2026-05-06 17:23 | 7.75752 | -73.59785 | 30538 ft | 488 kts | 357° |
| 2026-05-06 17:24 | 7.79147 | -73.59947 | 30757 ft | 487 kts | 357° |
| 2026-05-06 17:24 | 7.82528 | -73.60109 | 30986 ft | 487 kts | 357° |
| 2026-05-06 17:24 | 7.85912 | -73.60271 | 31212 ft | 486 kts | 357° |
| 2026-05-06 17:24 | 7.89292 | -73.60433 | 31444 ft | 486 kts | 357° |
| 2026-05-06 17:25 | 7.92665 | -73.60596 | 31678 ft | 486 kts | 357° |
| 2026-05-06 17:25 | 7.96036 | -73.60757 | 31909 ft | 485 kts | 358° |
| 2026-05-06 17:25 | 7.99415 | -73.60919 | 32146 ft | 485 kts | 358° |
| 2026-05-06 17:25 | 8.02783 | -73.61081 | 32397 ft | 484 kts | 358° |
| 2026-05-06 17:26 | 8.06143 | -73.61242 | 32684 ft | 483 kts | 358° |
| 2026-05-06 17:26 | 8.09494 | -73.61403 | 32937 ft | 482 kts | 358° |
| 2026-05-06 17:26 | 8.12801 | -73.61562 | 33187 ft | 481 kts | 358° |
| 2026-05-06 17:26 | 8.16144 | -73.61722 | 33447 ft | 481 kts | 358° |
| 2026-05-06 17:27 | 8.19479 | -73.61932 | 33694 ft | 481 kts | 352° |
| 2026-05-06 17:27 | 8.22748 | -73.62642 | 33966 ft | 480 kts | 348° |
| 2026-05-06 17:27 | 8.26011 | -73.63386 | 34153 ft | 481 kts | 348° |
| 2026-05-06 17:27 | 8.29269 | -73.64133 | 34368 ft | 480 kts | 347° |
| 2026-05-06 17:28 | 8.32528 | -73.64888 | 34590 ft | 480 kts | 348° |
| 2026-05-06 17:28 | 8.35777 | -73.65642 | 34808 ft | 479 kts | 347° |
| 2026-05-06 17:28 | 8.39020 | -73.66397 | 35070 ft | 477 kts | 347° |
| 2026-05-06 17:28 | 8.42215 | -73.67139 | 35264 ft | 478 kts | 346° |
| 2026-05-06 17:29 | 8.45454 | -73.67891 | 35467 ft | 477 kts | 346° |
| 2026-05-06 17:29 | 8.48687 | -73.68642 | 35694 ft | 477 kts | 346° |
| 2026-05-06 17:29 | 8.51923 | -73.69395 | 35857 ft | 477 kts | 346° |
| 2026-05-06 17:30 | 8.58346 | -73.70888 | 35913 ft | 468 kts | 346° |
| 2026-05-06 17:30 | 8.64704 | -73.72367 | 35899 ft | 471 kts | 346° |
| 2026-05-06 17:31 | 8.71061 | -73.73846 | 35907 ft | 472 kts | 346° |
| 2026-05-06 17:31 | 8.77449 | -73.75332 | 35904 ft | 468 kts | 347° |
| 2026-05-06 17:32 | 8.83790 | -73.76809 | 35904 ft | 467 kts | 347° |
| 2026-05-06 17:32 | 8.90125 | -73.78285 | 35902 ft | 467 kts | 347° |
| 2026-05-06 17:33 | 8.96419 | -73.79751 | 35891 ft | 467 kts | 347° |
| 2026-05-06 17:33 | 9.02751 | -73.81227 | 35889 ft | 467 kts | 347° |
| 2026-05-06 17:34 | 9.09092 | -73.82706 | 35888 ft | 467 kts | 347° |
| 2026-05-06 17:34 | 9.15416 | -73.84181 | 35885 ft | 466 kts | 346° |
| 2026-05-06 17:35 | 9.21693 | -73.85646 | 35885 ft | 466 kts | 346° |
| 2026-05-06 17:35 | 9.28009 | -73.87120 | 35885 ft | 466 kts | 346° |
| 2026-05-06 17:36 | 9.37483 | -73.89333 | 35888 ft | 466 kts | 346° |
| 2026-05-06 17:36 | 9.43750 | -73.90975 | 35884 ft | 465 kts | 341° |
| 2026-05-06 17:37 | 9.49877 | -73.92928 | 35881 ft | 464 kts | 342° |
| 2026-05-06 17:37 | 9.56040 | -73.94850 | 35884 ft | 464 kts | 342° |
| 2026-05-06 17:38 | 9.62215 | -73.96771 | 35889 ft | 464 kts | 342° |
| 2026-05-06 17:38 | 9.68388 | -73.98691 | 35881 ft | 464 kts | 342° |
| 2026-05-06 17:39 | 9.74532 | -74.00604 | 35884 ft | 464 kts | 342° |
| 2026-05-06 17:39 | 9.80698 | -74.02523 | 35891 ft | 463 kts | 342° |
| 2026-05-06 17:40 | 9.86860 | -74.04443 | 35885 ft | 463 kts | 342° |
| 2026-05-06 17:40 | 9.93027 | -74.06364 | 35887 ft | 463 kts | 342° |
| 2026-05-06 17:41 | 9.99189 | -74.08285 | 35892 ft | 463 kts | 342° |
| 2026-05-06 17:41 | 10.02271 | -74.09246 | 36002 ft | 464 kts | 342° |
| 2026-05-06 17:41 | 10.05359 | -74.10209 | 36252 ft | 464 kts | 342° |
| 2026-05-06 17:42 | 10.08446 | -74.11172 | 36497 ft | 463 kts | 342° |
| 2026-05-06 17:42 | 10.11492 | -74.12123 | 36740 ft | 463 kts | 342° |
| 2026-05-06 17:42 | 10.14570 | -74.13083 | 36987 ft | 463 kts | 342° |
| 2026-05-06 17:42 | 10.17647 | -74.14044 | 37234 ft | 462 kts | 342° |
| 2026-05-06 17:43 | 10.20715 | -74.15001 | 37480 ft | 461 kts | 342° |
| 2026-05-06 17:43 | 10.23784 | -74.15960 | 37723 ft | 461 kts | 342° |
| 2026-05-06 17:43 | 10.26848 | -74.16917 | 37912 ft | 460 kts | 342° |
| 2026-05-06 17:43 | 10.29907 | -74.17872 | 37909 ft | 460 kts | 342° |
| 2026-05-06 17:44 | 10.36004 | -74.19778 | 37915 ft | 458 kts | 342° |
| 2026-05-06 17:44 | 10.42113 | -74.21687 | 37889 ft | 458 kts | 342° |
| 2026-05-06 17:45 | 10.48169 | -74.23581 | 37892 ft | 458 kts | 342° |
| 2026-05-06 17:45 | 10.54261 | -74.25487 | 37895 ft | 458 kts | 342° |
| 2026-05-06 17:46 | 10.60351 | -74.27393 | 37893 ft | 458 kts | 342° |
| 2026-05-06 17:46 | 10.66439 | -74.29299 | 37908 ft | 458 kts | 342° |
| 2026-05-06 17:47 | 10.72494 | -74.31196 | 37907 ft | 458 kts | 342° |
| 2026-05-06 17:47 | 10.78581 | -74.33104 | 37903 ft | 458 kts | 342° |
| 2026-05-06 17:48 | 10.84673 | -74.35014 | 37904 ft | 458 kts | 342° |
| 2026-05-06 17:48 | 10.90763 | -74.36924 | 37902 ft | 458 kts | 341° |
| 2026-05-06 17:49 | 10.96861 | -74.38837 | 37907 ft | 458 kts | 341° |
| 2026-05-06 17:49 | 11.01924 | -74.40426 | 37907 ft | 458 kts | 342° |
| 2026-05-06 17:50 | 11.09000 | -74.42649 | 37907 ft | 458 kts | 341° |
| 2026-05-06 17:50 | 11.15093 | -74.44564 | 37908 ft | 458 kts | 341° |
| 2026-05-06 17:51 | 11.21184 | -74.46478 | 37912 ft | 458 kts | 341° |
| 2026-05-06 17:51 | 11.26248 | -74.48070 | 37915 ft | 458 kts | 341° |
| 2026-05-06 17:52 | 11.33297 | -74.50288 | 37902 ft | 455 kts | 341° |
| 2026-05-06 17:52 | 11.39358 | -74.52196 | 37910 ft | 455 kts | 341° |
| 2026-05-06 17:53 | 11.44394 | -74.53781 | 37918 ft | 456 kts | 340° |
| 2026-05-06 17:53 | 11.50448 | -74.55688 | 37923 ft | 456 kts | 341° |
| 2026-05-06 17:54 | 11.56503 | -74.57598 | 37912 ft | 455 kts | 341° |
| 2026-05-06 17:54 | 11.62559 | -74.59506 | 37932 ft | 455 kts | 340° |
| 2026-05-06 17:55 | 11.68559 | -74.61398 | 37926 ft | 454 kts | 340° |
| 2026-05-06 17:55 | 11.74578 | -74.63298 | 37921 ft | 453 kts | 340° |
| 2026-05-06 17:56 | 11.81574 | -74.65507 | 37931 ft | 453 kts | 341° |
| 2026-05-06 17:56 | 11.86621 | -74.67101 | 37934 ft | 453 kts | 340° |
| 2026-05-06 17:57 | 11.92604 | -74.68990 | 37947 ft | 454 kts | 340° |
| 2026-05-06 17:57 | 11.98641 | -74.70868 | 37949 ft | 454 kts | 341° |
| 2026-05-06 17:58 | 12.04683 | -74.72750 | 37931 ft | 454 kts | 341° |
| 2026-05-06 17:58 | 12.10738 | -74.74634 | 37942 ft | 454 kts | 340° |
| 2026-05-06 17:59 | 12.16751 | -74.76507 | 37947 ft | 455 kts | 340° |
| 2026-05-06 17:59 | 12.22799 | -74.78391 | 37951 ft | 455 kts | 340° |
| 2026-05-06 18:00 | 12.28844 | -74.80277 | 37944 ft | 454 kts | 340° |
| 2026-05-06 18:00 | 12.34887 | -74.82162 | 37957 ft | 453 kts | 339° |
| 2026-05-06 18:01 | 12.40932 | -74.84049 | 37956 ft | 454 kts | 340° |
| 2026-05-06 18:01 | 12.46929 | -74.85921 | 37953 ft | 454 kts | 340° |
| 2026-05-06 18:02 | 12.52968 | -74.87808 | 37948 ft | 454 kts | 341° |
| 2026-05-06 18:02 | 12.59012 | -74.89697 | 37947 ft | 454 kts | 340° |
| 2026-05-06 18:03 | 12.65058 | -74.91587 | 37963 ft | 455 kts | 340° |
| 2026-05-06 18:03 | 12.71105 | -74.93479 | 37965 ft | 455 kts | 340° |
| 2026-05-06 18:04 | 12.77095 | -74.95354 | 37962 ft | 453 kts | 340° |
| 2026-05-06 18:04 | 12.83118 | -74.97241 | 37949 ft | 452 kts | 341° |
| 2026-05-06 18:05 | 12.89151 | -74.99131 | 37964 ft | 453 kts | 340° |
| 2026-05-06 18:05 | 12.95177 | -75.01020 | 37968 ft | 454 kts | 340° |
| 2026-05-06 18:06 | 13.01162 | -75.02897 | 37966 ft | 452 kts | 339° |
| 2026-05-06 18:06 | 13.07175 | -75.04785 | 37964 ft | 452 kts | 341° |
| 2026-05-06 18:07 | 13.13182 | -75.06671 | 37959 ft | 450 kts | 340° |
| 2026-05-06 18:07 | 13.19176 | -75.08553 | 37973 ft | 451 kts | 340° |
| 2026-05-06 18:08 | 13.25173 | -75.10437 | 37975 ft | 451 kts | 341° |
| 2026-05-06 18:08 | 13.31120 | -75.12309 | 37952 ft | 451 kts | 340° |
| 2026-05-06 18:09 | 13.37124 | -75.14197 | 37965 ft | 451 kts | 341° |
| 2026-05-06 18:09 | 13.43123 | -75.16085 | 37982 ft | 449 kts | 341° |
| 2026-05-06 18:10 | 13.49082 | -75.17962 | 37976 ft | 448 kts | 341° |
| 2026-05-06 18:10 | 13.54987 | -75.19823 | 37960 ft | 447 kts | 341° |
| 2026-05-06 18:11 | 13.60937 | -75.21699 | 37954 ft | 446 kts | 341° |
| 2026-05-06 18:11 | 13.66890 | -75.23576 | 37975 ft | 447 kts | 341° |
| 2026-05-06 18:12 | 13.72832 | -75.25451 | 37976 ft | 447 kts | 340° |
| 2026-05-06 18:12 | 13.78722 | -75.27312 | 37976 ft | 447 kts | 341° |
| 2026-05-06 18:13 | 13.84663 | -75.29189 | 37961 ft | 446 kts | 341° |
| 2026-05-06 18:13 | 13.90615 | -75.31070 | 37967 ft | 446 kts | 340° |
| 2026-05-06 18:14 | 13.96558 | -75.32949 | 37985 ft | 447 kts | 341° |
| 2026-05-06 18:14 | 14.02463 | -75.34819 | 37989 ft | 448 kts | 342° |
| 2026-05-06 18:15 | 14.08409 | -75.36701 | 37967 ft | 447 kts | 341° |
| 2026-05-06 18:15 | 14.14361 | -75.38586 | 37968 ft | 446 kts | 341° |
| 2026-05-06 18:16 | 14.20308 | -75.40472 | 37987 ft | 447 kts | 341° |
| 2026-05-06 18:16 | 14.26252 | -75.42356 | 37997 ft | 448 kts | 341° |
| 2026-05-06 18:17 | 14.32156 | -75.44230 | 37973 ft | 447 kts | 341° |
| 2026-05-06 18:17 | 14.38096 | -75.46116 | 37967 ft | 445 kts | 342° |
| 2026-05-06 18:18 | 14.44033 | -75.48003 | 37974 ft | 446 kts | 341° |
| 2026-05-06 18:18 | 14.49970 | -75.49890 | 37999 ft | 446 kts | 342° |
| 2026-05-06 18:19 | 14.55853 | -75.51760 | 37990 ft | 446 kts | 342° |
| 2026-05-06 18:19 | 14.61777 | -75.53645 | 37965 ft | 445 kts | 342° |
| 2026-05-06 18:20 | 14.67705 | -75.55532 | 37970 ft | 445 kts | 342° |
| 2026-05-06 18:20 | 14.73632 | -75.57420 | 37999 ft | 446 kts | 342° |
| 2026-05-06 18:21 | 14.79561 | -75.59310 | 38001 ft | 447 kts | 342° |
| 2026-05-06 18:21 | 14.85447 | -75.61188 | 37982 ft | 446 kts | 343° |
| 2026-05-06 18:22 | 14.91355 | -75.63072 | 37970 ft | 443 kts | 343° |
| 2026-05-06 18:22 | 14.97248 | -75.64953 | 37978 ft | 443 kts | 343° |
| 2026-05-06 18:23 | 15.03148 | -75.66843 | 37995 ft | 444 kts | 343° |
| 2026-05-06 18:23 | 15.09043 | -75.68733 | 38000 ft | 444 kts | 343° |
| 2026-05-06 18:24 | 15.14891 | -75.70609 | 37979 ft | 443 kts | 343° |
| 2026-05-06 18:24 | 15.20787 | -75.72501 | 37977 ft | 443 kts | 343° |
| 2026-05-06 18:25 | 15.26701 | -75.74399 | 37992 ft | 446 kts | 343° |
| 2026-05-06 18:25 | 15.32625 | -75.76303 | 38016 ft | 446 kts | 343° |
| 2026-05-06 18:26 | 15.38490 | -75.78189 | 38008 ft | 445 kts | 343° |
| 2026-05-06 18:26 | 15.44416 | -75.80095 | 37979 ft | 446 kts | 344° |
| 2026-05-06 18:27 | 15.50347 | -75.82004 | 37981 ft | 445 kts | 343° |
| 2026-05-06 18:27 | 15.56275 | -75.83913 | 38000 ft | 446 kts | 343° |
| 2026-05-06 18:28 | 15.62187 | -75.85818 | 38011 ft | 445 kts | 344° |
| 2026-05-06 18:28 | 15.68097 | -75.87724 | 38006 ft | 445 kts | 343° |
| 2026-05-06 18:29 | 15.74015 | -75.89633 | 37990 ft | 445 kts | 343° |
| 2026-05-06 18:29 | 15.79892 | -75.91531 | 37996 ft | 444 kts | 343° |
| 2026-05-06 18:30 | 15.85810 | -75.93442 | 38012 ft | 445 kts | 343° |
| 2026-05-06 18:30 | 15.91724 | -75.95353 | 38020 ft | 445 kts | 344° |
| 2026-05-06 18:31 | 15.97586 | -75.97250 | 38000 ft | 444 kts | 343° |
| 2026-05-06 18:31 | 16.03387 | -75.99127 | 38000 ft | 444 kts | 343° |
| 2026-05-06 18:32 | 16.09288 | -76.01038 | 38004 ft | 444 kts | 343° |
| 2026-05-06 18:32 | 16.15190 | -76.02951 | 38009 ft | 444 kts | 344° |
| 2026-05-06 18:33 | 16.21097 | -76.04866 | 38010 ft | 444 kts | 344° |
| 2026-05-06 18:33 | 16.26986 | -76.06777 | 38013 ft | 441 kts | 344° |
| 2026-05-06 18:34 | 16.32845 | -76.08678 | 38009 ft | 440 kts | 344° |
| 2026-05-06 18:34 | 16.38664 | -76.10569 | 38014 ft | 441 kts | 344° |
| 2026-05-06 18:35 | 16.44514 | -76.12470 | 38010 ft | 440 kts | 344° |
| 2026-05-06 18:35 | 16.50373 | -76.14376 | 38006 ft | 440 kts | 344° |
| 2026-05-06 18:36 | 16.56225 | -76.16281 | 38014 ft | 440 kts | 344° |
| 2026-05-06 18:36 | 16.62058 | -76.18180 | 38017 ft | 437 kts | 345° |
| 2026-05-06 18:37 | 16.67843 | -76.20066 | 38015 ft | 435 kts | 345° |
| 2026-05-06 18:37 | 16.73623 | -76.21950 | 38016 ft | 435 kts | 345° |
| 2026-05-06 18:38 | 16.79408 | -76.23838 | 38014 ft | 435 kts | 345° |
| 2026-05-06 18:38 | 16.85149 | -76.25712 | 38016 ft | 435 kts | 345° |
| 2026-05-06 18:39 | 16.90932 | -76.27603 | 38019 ft | 435 kts | 344° |
| 2026-05-06 18:40 | 16.99555 | -76.30465 | 38017 ft | 431 kts | 344° |
| 2026-05-06 18:40 | 17.05272 | -76.32362 | 38019 ft | 431 kts | 344° |
| 2026-05-06 18:41 | 17.10995 | -76.34262 | 38017 ft | 431 kts | 344° |
| 2026-05-06 18:41 | 17.16718 | -76.36164 | 38014 ft | 431 kts | 344° |
| 2026-05-06 18:42 | 17.22438 | -76.38065 | 38017 ft | 431 kts | 344° |
| 2026-05-06 18:42 | 17.28120 | -76.39956 | 38019 ft | 431 kts | 344° |
| 2026-05-06 18:43 | 17.33815 | -76.41851 | 38016 ft | 428 kts | 344° |
| 2026-05-06 18:43 | 17.39492 | -76.43742 | 38015 ft | 428 kts | 344° |
| 2026-05-06 18:44 | 17.45181 | -76.45639 | 38016 ft | 428 kts | 344° |
| 2026-05-06 18:44 | 17.50855 | -76.47531 | 38015 ft | 428 kts | 344° |
| 2026-05-06 18:45 | 17.56539 | -76.49428 | 38024 ft | 428 kts | 344° |
| 2026-05-06 18:45 | 17.62184 | -76.51313 | 38012 ft | 429 kts | 344° |
| 2026-05-06 18:46 | 17.67878 | -76.53217 | 38016 ft | 429 kts | 344° |
| 2026-05-06 18:46 | 17.73575 | -76.55122 | 38024 ft | 429 kts | 344° |
| 2026-05-06 18:47 | 17.79263 | -76.57025 | 38020 ft | 429 kts | 344° |
| 2026-05-06 18:47 | 17.84958 | -76.58932 | 38023 ft | 429 kts | 344° |
| 2026-05-06 18:48 | 17.90652 | -76.60840 | 38018 ft | 429 kts | 344° |
| 2026-05-06 18:48 | 17.96344 | -76.62749 | 38033 ft | 430 kts | 344° |
| 2026-05-06 18:49 | 18.02028 | -76.64656 | 38019 ft | 426 kts | 344° |
| 2026-05-06 18:49 | 18.07634 | -76.66537 | 38018 ft | 425 kts | 344° |
| 2026-05-06 18:50 | 18.13291 | -76.68439 | 38014 ft | 427 kts | 344° |
| 2026-05-06 18:50 | 18.18946 | -76.70340 | 38022 ft | 426 kts | 344° |
| 2026-05-06 18:51 | 18.24604 | -76.72244 | 38034 ft | 426 kts | 344° |
| 2026-05-06 18:51 | 18.30265 | -76.74150 | 38029 ft | 426 kts | 344° |
| 2026-05-06 18:52 | 18.35869 | -76.76039 | 38031 ft | 425 kts | 344° |
| 2026-05-06 18:52 | 18.41501 | -76.77937 | 38032 ft | 425 kts | 344° |
| 2026-05-06 18:53 | 18.47136 | -76.79838 | 38031 ft | 425 kts | 344° |
| 2026-05-06 18:53 | 18.52764 | -76.81739 | 38030 ft | 425 kts | 344° |
| 2026-05-06 18:54 | 18.58396 | -76.83641 | 38034 ft | 425 kts | 344° |
| 2026-05-06 18:54 | 18.63985 | -76.85531 | 38031 ft | 425 kts | 344° |
| 2026-05-06 18:55 | 18.69620 | -76.87437 | 38028 ft | 425 kts | 343° |
| 2026-05-06 18:55 | 18.75263 | -76.89348 | 38036 ft | 426 kts | 343° |
| 2026-05-06 18:56 | 18.80905 | -76.91259 | 38031 ft | 426 kts | 343° |
| 2026-05-06 18:56 | 18.86558 | -76.93176 | 38032 ft | 426 kts | 343° |
| 2026-05-06 18:57 | 18.92206 | -76.95092 | 38032 ft | 426 kts | 343° |
| 2026-05-06 18:57 | 18.97853 | -76.97009 | 38036 ft | 426 kts | 343° |
| 2026-05-06 18:58 | 19.03490 | -76.98924 | 38035 ft | 424 kts | 343° |
| 2026-05-06 18:58 | 19.09074 | -77.00823 | 38038 ft | 424 kts | 343° |
| 2026-05-06 18:59 | 19.14704 | -77.02738 | 38039 ft | 424 kts | 343° |
| 2026-05-06 18:59 | 19.20328 | -77.04653 | 38041 ft | 424 kts | 343° |
| 2026-05-06 19:00 | 19.25951 | -77.06569 | 38041 ft | 424 kts | 343° |
| 2026-05-06 19:00 | 19.31573 | -77.08485 | 38041 ft | 424 kts | 343° |
| 2026-05-06 19:01 | 19.37248 | -77.10199 | 38049 ft | 423 kts | 346° |
| 2026-05-06 19:01 | 19.42891 | -77.11837 | 38042 ft | 423 kts | 345° |
| 2026-05-06 19:02 | 19.48565 | -77.13493 | 38048 ft | 423 kts | 345° |
| 2026-05-06 19:02 | 19.54237 | -77.15151 | 38048 ft | 423 kts | 345° |
| 2026-05-06 19:03 | 19.59914 | -77.16811 | 38047 ft | 423 kts | 345° |
| 2026-05-06 19:03 | 19.65592 | -77.18473 | 38049 ft | 423 kts | 345° |
| 2026-05-06 19:04 | 19.71265 | -77.20135 | 38048 ft | 422 kts | 345° |
| 2026-05-06 19:04 | 19.76922 | -77.21793 | 38050 ft | 421 kts | 345° |
| 2026-05-06 19:05 | 19.81622 | -77.23171 | 38037 ft | 422 kts | 345° |
| 2026-05-06 19:05 | 19.88243 | -77.25107 | 38051 ft | 425 kts | 345° |
| 2026-05-06 19:06 | 19.92982 | -77.26491 | 38045 ft | 424 kts | 345° |
| 2026-05-06 19:06 | 19.98682 | -77.28159 | 38047 ft | 424 kts | 345° |
| 2026-05-06 19:07 | 20.04380 | -77.29826 | 38045 ft | 424 kts | 345° |
| 2026-05-06 19:07 | 20.10074 | -77.31493 | 38042 ft | 424 kts | 345° |
| 2026-05-06 19:08 | 20.15730 | -77.33151 | 38042 ft | 424 kts | 345° |
| 2026-05-06 19:08 | 20.21412 | -77.34817 | 38040 ft | 424 kts | 345° |
| 2026-05-06 19:09 | 20.27101 | -77.36487 | 38036 ft | 424 kts | 345° |
| 2026-05-06 19:09 | 20.32792 | -77.38159 | 38037 ft | 424 kts | 345° |
| 2026-05-06 19:10 | 20.38476 | -77.39830 | 38038 ft | 423 kts | 345° |
| 2026-05-06 19:10 | 20.44163 | -77.41503 | 38037 ft | 423 kts | 345° |
| 2026-05-06 19:11 | 20.49813 | -77.43166 | 38040 ft | 423 kts | 345° |
| 2026-05-06 19:11 | 20.55507 | -77.44831 | 38041 ft | 423 kts | 345° |
| 2026-05-06 19:12 | 20.61197 | -77.46457 | 38035 ft | 423 kts | 345° |
| 2026-05-06 19:12 | 20.66894 | -77.48089 | 38031 ft | 423 kts | 345° |
| 2026-05-06 19:13 | 20.72579 | -77.49720 | 38033 ft | 422 kts | 345° |
| 2026-05-06 19:13 | 20.78249 | -77.51348 | 38031 ft | 422 kts | 345° |
| 2026-05-06 19:14 | 20.83896 | -77.52971 | 38036 ft | 422 kts | 345° |
| 2026-05-06 19:14 | 20.89571 | -77.54602 | 38032 ft | 422 kts | 345° |
| 2026-05-06 19:15 | 20.95245 | -77.56235 | 38041 ft | 422 kts | 345° |
| 2026-05-06 19:15 | 21.00917 | -77.57867 | 38033 ft | 422 kts | 345° |
| 2026-05-06 19:16 | 21.06590 | -77.59500 | 38019 ft | 422 kts | 345° |
| 2026-05-06 19:16 | 21.12294 | -77.61143 | 38035 ft | 425 kts | 345° |
| 2026-05-06 19:17 | 21.18007 | -77.62789 | 38034 ft | 425 kts | 345° |
| 2026-05-06 19:17 | 21.23715 | -77.64436 | 38036 ft | 425 kts | 345° |
| 2026-05-06 19:18 | 21.29392 | -77.66075 | 38033 ft | 425 kts | 345° |
| 2026-05-06 19:18 | 21.35108 | -77.67727 | 38048 ft | 425 kts | 345° |
| 2026-05-06 19:19 | 21.40809 | -77.69375 | 38033 ft | 423 kts | 345° |
| 2026-05-06 19:19 | 21.46500 | -77.71022 | 38028 ft | 423 kts | 345° |
| 2026-05-06 19:20 | 21.52145 | -77.72657 | 38031 ft | 423 kts | 345° |
| 2026-05-06 19:20 | 21.57836 | -77.74307 | 38038 ft | 423 kts | 345° |
| 2026-05-06 19:21 | 21.63518 | -77.75955 | 38045 ft | 423 kts | 345° |
| 2026-05-06 19:21 | 21.69204 | -77.77606 | 38046 ft | 422 kts | 344° |
| 2026-05-06 19:22 | 21.74867 | -77.79251 | 38043 ft | 421 kts | 344° |
| 2026-05-06 19:22 | 21.80524 | -77.80896 | 38043 ft | 421 kts | 344° |
| 2026-05-06 19:23 | 21.86189 | -77.82545 | 38036 ft | 421 kts | 344° |
| 2026-05-06 19:23 | 21.91467 | -77.85141 | 38057 ft | 420 kts | 325° |
| 2026-05-06 19:24 | 21.96177 | -77.88847 | 38042 ft | 423 kts | 324° |
| 2026-05-06 19:24 | 22.00881 | -77.92681 | 38048 ft | 423 kts | 324° |
| 2026-05-06 19:25 | 22.05543 | -77.96529 | 38040 ft | 422 kts | 324° |
| 2026-05-06 19:25 | 22.10225 | -78.00405 | 38052 ft | 425 kts | 323° |
| 2026-05-06 19:26 | 22.14912 | -78.04289 | 38052 ft | 424 kts | 323° |
| 2026-05-06 19:26 | 22.19590 | -78.08169 | 38042 ft | 424 kts | 323° |
| 2026-05-06 19:27 | 22.24245 | -78.12032 | 38051 ft | 425 kts | 323° |
| 2026-05-06 19:27 | 22.28928 | -78.15922 | 38046 ft | 424 kts | 323° |
| 2026-05-06 19:28 | 22.33609 | -78.19815 | 38040 ft | 425 kts | 323° |
| 2026-05-06 19:28 | 22.38285 | -78.23706 | 38054 ft | 424 kts | 323° |
| 2026-05-06 19:29 | 22.42959 | -78.27600 | 38051 ft | 424 kts | 323° |
| 2026-05-06 19:29 | 22.47640 | -78.31501 | 38046 ft | 424 kts | 323° |
| 2026-05-06 19:30 | 22.52316 | -78.35394 | 38051 ft | 424 kts | 323° |
| 2026-05-06 19:30 | 22.56996 | -78.39279 | 38067 ft | 424 kts | 323° |
| 2026-05-06 19:31 | 22.61672 | -78.43165 | 38047 ft | 424 kts | 323° |
| 2026-05-06 19:31 | 22.68661 | -78.48979 | 38051 ft | 424 kts | 323° |
| 2026-05-06 19:32 | 22.73334 | -78.52871 | 38056 ft | 423 kts | 323° |
| 2026-05-06 19:32 | 22.78322 | -78.56158 | 38040 ft | 421 kts | 343° |
| 2026-05-06 19:33 | 22.84040 | -78.57515 | 38041 ft | 424 kts | 347° |
| 2026-05-06 19:33 | 22.89851 | -78.58683 | 38051 ft | 425 kts | 348° |
| 2026-05-06 19:34 | 22.95671 | -78.59792 | 38054 ft | 425 kts | 348° |
| 2026-05-06 19:34 | 23.01498 | -78.60890 | 38052 ft | 425 kts | 348° |
| 2026-05-06 19:35 | 23.07280 | -78.61980 | 38063 ft | 424 kts | 348° |
| 2026-05-06 19:35 | 23.13093 | -78.63076 | 38057 ft | 424 kts | 348° |
| 2026-05-06 19:36 | 23.18908 | -78.64174 | 38061 ft | 424 kts | 348° |
| 2026-05-06 19:36 | 23.24718 | -78.65272 | 38057 ft | 424 kts | 348° |
| 2026-05-06 19:37 | 23.30495 | -78.66364 | 38060 ft | 424 kts | 348° |
| 2026-05-06 19:37 | 23.35365 | -78.67285 | 38070 ft | 424 kts | 348° |
| 2026-05-06 19:38 | 23.42118 | -78.68565 | 38056 ft | 424 kts | 348° |
| 2026-05-06 19:38 | 23.47953 | -78.69671 | 38060 ft | 427 kts | 348° |
| 2026-05-06 19:39 | 23.53758 | -78.70772 | 38056 ft | 426 kts | 348° |
| 2026-05-06 19:39 | 23.59595 | -78.71881 | 38058 ft | 426 kts | 348° |
| 2026-05-06 19:40 | 23.65431 | -78.72991 | 38060 ft | 426 kts | 348° |
| 2026-05-06 19:40 | 23.71257 | -78.74099 | 38057 ft | 424 kts | 347° |
| 2026-05-06 19:41 | 23.77076 | -78.75207 | 38060 ft | 425 kts | 347° |
| 2026-05-06 19:41 | 23.82854 | -78.76309 | 38059 ft | 424 kts | 347° |
| 2026-05-06 19:42 | 23.88673 | -78.77419 | 38060 ft | 424 kts | 347° |
| 2026-05-06 19:42 | 23.94491 | -78.78530 | 38060 ft | 424 kts | 347° |
| 2026-05-06 19:43 | 24.00197 | -78.80033 | 38032 ft | 418 kts | 332° |
| 2026-05-06 19:43 | 24.05263 | -78.83148 | 38032 ft | 419 kts | 329° |
| 2026-05-06 19:44 | 24.10246 | -78.86366 | 38063 ft | 419 kts | 328° |
| 2026-05-06 19:44 | 24.15234 | -78.89652 | 38062 ft | 418 kts | 328° |
| 2026-05-06 19:45 | 24.20221 | -78.92952 | 38063 ft | 419 kts | 328° |
| 2026-05-06 19:45 | 24.25201 | -78.96252 | 38064 ft | 419 kts | 328° |
| 2026-05-06 19:46 | 24.30152 | -78.99536 | 38062 ft | 419 kts | 328° |
| 2026-05-06 19:46 | 24.35134 | -79.02843 | 38061 ft | 419 kts | 328° |
| 2026-05-06 19:47 | 24.40115 | -79.06153 | 38057 ft | 419 kts | 327° |
| 2026-05-06 19:47 | 24.45106 | -79.09473 | 38063 ft | 420 kts | 327° |
| 2026-05-06 19:48 | 24.50089 | -79.12790 | 37769 ft | 414 kts | 327° |
| 2026-05-06 19:48 | 24.52514 | -79.14406 | 37164 ft | 412 kts | 328° |
| 2026-05-06 19:48 | 24.54954 | -79.16032 | 36696 ft | 407 kts | 328° |
| 2026-05-06 19:49 | 24.57365 | -79.17639 | 36096 ft | 405 kts | 328° |
| 2026-05-06 19:49 | 24.59787 | -79.19255 | 35282 ft | 410 kts | 328° |
| 2026-05-06 19:49 | 24.62240 | -79.20892 | 34556 ft | 415 kts | 328° |
| 2026-05-06 19:49 | 24.64722 | -79.22550 | 33793 ft | 419 kts | 328° |
| 2026-05-06 19:50 | 24.67217 | -79.24216 | 32926 ft | 421 kts | 328° |
| 2026-05-06 19:50 | 24.69728 | -79.25894 | 32088 ft | 424 kts | 328° |
| 2026-05-06 19:50 | 24.72253 | -79.27583 | 31263 ft | 427 kts | 329° |
| 2026-05-06 19:50 | 24.74807 | -79.29292 | 30384 ft | 433 kts | 329° |
| 2026-05-06 19:51 | 24.77357 | -79.30999 | 29372 ft | 436 kts | 329° |
| 2026-05-06 19:51 | 24.79962 | -79.32744 | 28328 ft | 441 kts | 329° |
| 2026-05-06 19:51 | 24.82588 | -79.34504 | 27275 ft | 443 kts | 329° |
| 2026-05-06 19:51 | 24.85245 | -79.36284 | 26065 ft | 450 kts | 329° |
| 2026-05-06 19:52 | 24.87930 | -79.38086 | 25049 ft | 454 kts | 329° |
| 2026-05-06 19:52 | 24.90638 | -79.39903 | 24006 ft | 458 kts | 329° |
| 2026-05-06 19:52 | 24.93347 | -79.41722 | 23296 ft | 452 kts | 329° |
| 2026-05-06 19:52 | 24.96004 | -79.43507 | 22920 ft | 439 kts | 329° |
| 2026-05-06 19:53 | 24.98517 | -79.45196 | 22801 ft | 421 kts | 329° |
| 2026-05-06 19:53 | 25.00978 | -79.46850 | 22529 ft | 408 kts | 329° |
| 2026-05-06 19:53 | 25.03367 | -79.48457 | 22273 ft | 396 kts | 329° |
| 2026-05-06 19:53 | 25.05688 | -79.50020 | 22043 ft | 385 kts | 329° |
| 2026-05-06 19:54 | 25.07943 | -79.51538 | 21840 ft | 375 kts | 329° |
| 2026-05-06 19:54 | 25.10143 | -79.53020 | 21532 ft | 367 kts | 329° |
| 2026-05-06 19:54 | 25.12320 | -79.54487 | 21045 ft | 366 kts | 329° |
| 2026-05-06 19:54 | 25.14484 | -79.55947 | 20638 ft | 363 kts | 330° |
| 2026-05-06 19:55 | 25.16634 | -79.57396 | 20216 ft | 360 kts | 330° |
| 2026-05-06 19:55 | 25.18762 | -79.58832 | 19804 ft | 358 kts | 330° |
| 2026-05-06 19:55 | 25.20853 | -79.60244 | 19402 ft | 356 kts | 330° |
| 2026-05-06 19:55 | 25.22956 | -79.61664 | 18995 ft | 353 kts | 330° |
| 2026-05-06 19:56 | 25.25047 | -79.63077 | 18600 ft | 351 kts | 330° |
| 2026-05-06 19:56 | 25.27127 | -79.64482 | 18183 ft | 349 kts | 330° |
| 2026-05-06 19:56 | 25.29192 | -79.65879 | 17736 ft | 347 kts | 330° |
| 2026-05-06 19:56 | 25.31248 | -79.67269 | 17286 ft | 345 kts | 330° |
| 2026-05-06 19:57 | 25.33290 | -79.68651 | 16873 ft | 343 kts | 330° |
| 2026-05-06 19:57 | 25.35313 | -79.70021 | 16477 ft | 340 kts | 330° |
| 2026-05-06 19:57 | 25.37321 | -79.71382 | 16099 ft | 337 kts | 330° |
| 2026-05-06 19:57 | 25.39114 | -79.73033 | 15720 ft | 340 kts | 312° |
| 2026-05-06 19:58 | 25.40526 | -79.75138 | 15407 ft | 343 kts | 309° |
| 2026-05-06 19:58 | 25.41920 | -79.77247 | 15087 ft | 345 kts | 309° |
| 2026-05-06 19:58 | 25.43325 | -79.79401 | 14768 ft | 345 kts | 309° |
| 2026-05-06 19:58 | 25.44720 | -79.81559 | 14429 ft | 345 kts | 309° |
| 2026-05-06 19:59 | 25.46113 | -79.83723 | 14094 ft | 345 kts | 309° |
| 2026-05-06 19:59 | 25.47503 | -79.85888 | 13744 ft | 344 kts | 309° |
| 2026-05-06 19:59 | 25.48888 | -79.88048 | 13335 ft | 344 kts | 308° |
| 2026-05-06 19:59 | 25.50263 | -79.90196 | 12970 ft | 340 kts | 308° |
| 2026-05-06 20:00 | 25.51623 | -79.92319 | 12653 ft | 335 kts | 308° |
| 2026-05-06 20:00 | 25.52959 | -79.94407 | 12334 ft | 330 kts | 308° |
| 2026-05-06 20:00 | 25.54280 | -79.96471 | 12018 ft | 326 kts | 308° |
| 2026-05-06 20:00 | 25.55582 | -79.98507 | 11701 ft | 322 kts | 308° |
| 2026-05-06 20:01 | 25.56868 | -80.00521 | 11388 ft | 318 kts | 308° |
| 2026-05-06 20:01 | 25.58140 | -80.02511 | 11076 ft | 315 kts | 308° |
| 2026-05-06 20:01 | 25.59401 | -80.04486 | 10717 ft | 314 kts | 307° |
| 2026-05-06 20:01 | 25.60661 | -80.06459 | 10344 ft | 313 kts | 307° |
| 2026-05-06 20:02 | 25.61896 | -80.08393 | 10002 ft | 311 kts | 307° |
| 2026-05-06 20:02 | 25.63133 | -80.10334 | 9616 ft | 303 kts | 307° |
| 2026-05-06 20:02 | 25.64325 | -80.12204 | 9265 ft | 292 kts | 307° |
| 2026-05-06 20:02 | 25.65457 | -80.14018 | 8964 ft | 280 kts | 302° |
| 2026-05-06 20:03 | 25.66300 | -80.15942 | 8704 ft | 277 kts | 296° |
| 2026-05-06 20:03 | 25.67111 | -80.17875 | 8449 ft | 277 kts | 297° |
| 2026-05-06 20:03 | 25.67936 | -80.19799 | 8216 ft | 276 kts | 297° |
| 2026-05-06 20:03 | 25.68762 | -80.21720 | 7991 ft | 275 kts | 296° |
| 2026-05-06 20:04 | 25.69570 | -80.23651 | 7697 ft | 276 kts | 296° |
| 2026-05-06 20:04 | 25.70369 | -80.25548 | 7427 ft | 274 kts | 296° |
| 2026-05-06 20:04 | 25.71071 | -80.27503 | 7138 ft | 273 kts | 281° |
| 2026-05-06 20:04 | 25.71119 | -80.29599 | 6873 ft | 272 kts | 268° |
| 2026-05-06 20:05 | 25.71040 | -80.31680 | 6616 ft | 269 kts | 268° |
| 2026-05-06 20:05 | 25.70955 | -80.33743 | 6350 ft | 267 kts | 267° |
| 2026-05-06 20:05 | 25.70865 | -80.35789 | 6066 ft | 265 kts | 267° |
| 2026-05-06 20:05 | 25.70772 | -80.37818 | 5802 ft | 262 kts | 267° |
| 2026-05-06 20:06 | 25.70678 | -80.39829 | 5545 ft | 260 kts | 267° |
| 2026-05-06 20:06 | 25.70584 | -80.41816 | 5290 ft | 257 kts | 267° |
| 2026-05-06 20:06 | 25.70497 | -80.43788 | 5038 ft | 255 kts | 270° |
| 2026-05-06 20:06 | 25.70900 | -80.45674 | 4670 ft | 256 kts | 300° |
| 2026-05-06 20:07 | 25.72144 | -80.47019 | 4251 ft | 255 kts | 333° |
| 2026-05-06 20:07 | 25.73838 | -80.47439 | 3869 ft | 249 kts | 4° |
| 2026-05-06 20:07 | 25.75471 | -80.46934 | 3554 ft | 241 kts | 24° |
| 2026-05-06 20:07 | 25.77050 | -80.46488 | 3283 ft | 231 kts | 359° |
| 2026-05-06 20:08 | 25.78624 | -80.46576 | 3006 ft | 223 kts | 7° |
| 2026-05-06 20:08 | 25.79969 | -80.45845 | 2615 ft | 217 kts | 51° |
| 2026-05-06 20:08 | 25.80609 | -80.44423 | 2451 ft | 202 kts | 82° |
| 2026-05-06 20:08 | 25.80476 | -80.42917 | 2225 ft | 197 kts | 108° |
| 2026-05-06 20:09 | 25.80040 | -80.41474 | 1997 ft | 197 kts | 105° |
| 2026-05-06 20:09 | 25.79783 | -80.39997 | 1744 ft | 192 kts | 96° |
| 2026-05-06 20:09 | 25.79730 | -80.38618 | 1581 ft | 175 kts | 91° |
| 2026-05-06 20:09 | 25.79765 | -80.37314 | 1324 ft | 161 kts | 89° |
| 2026-05-06 20:10 | 25.79821 | -80.36143 | 1096 ft | 144 kts | 90° |
| 2026-05-06 20:10 | 25.79864 | -80.35065 | 822 ft | 136 kts | 88° |
| 2026-05-06 20:10 | 25.79927 | -80.34044 | 698 ft | 133 kts | 89° |
| 2026-05-06 20:10 | 25.79976 | -80.32998 | 559 ft | 137 kts | 90° |
| 2026-05-06 20:11 | 25.80004 | -80.31946 | 479 ft | 136 kts | 90° |